createdAt,value
2023-04-27T00:01:39.775Z,3.06
2023-04-27T00:04:43.361Z,3.09
2023-04-27T00:07:45.924Z,3.10
2023-04-27T00:10:48.132Z,3.06
2023-04-27T00:13:50.534Z,3.03
2023-04-27T00:16:52.755Z,3.02
2023-04-27T00:19:55.086Z,2.75
2023-04-27T00:22:57.293Z,2.68
2023-04-27T00:25:59.528Z,2.61
2023-04-27T00:29:01.734Z,2.50
2023-04-27T00:32:04.046Z,2.66
2023-04-27T00:35:07.514Z,2.60
2023-04-27T00:38:09.658Z,2.57
2023-04-27T00:41:11.849Z,2.48
2023-04-27T00:44:14.037Z,2.37
2023-04-27T00:47:17.356Z,2.41
2023-04-27T00:50:32.548Z,2.47
2023-04-27T00:53:36.350Z,2.34
2023-04-27T00:56:38.539Z,2.58
2023-04-27T00:59:40.817Z,2.21
2023-04-27T01:02:43.269Z,2.20
2023-04-27T01:05:45.644Z,2.04
2023-04-27T01:08:47.817Z,1.91
2023-04-27T01:11:50.065Z,1.92
2023-04-27T01:14:52.215Z,1.79
2023-04-27T01:18:01.442Z,1.88
2023-04-27T01:21:03.937Z,1.75
2023-04-27T01:24:07.423Z,1.81
2023-04-27T01:27:09.954Z,1.89
2023-04-27T01:30:12.275Z,1.94
2023-04-27T01:33:14.612Z,2.04
2023-04-27T01:36:16.878Z,2.10
2023-04-27T01:39:19.054Z,2.13
2023-04-27T01:42:21.304Z,2.07
2023-04-27T01:45:23.486Z,1.95
2023-04-27T01:48:25.739Z,1.99
2023-04-27T01:51:27.973Z,2.08
2023-04-27T01:54:30.205Z,2.10
2023-04-27T01:57:32.390Z,2.07
2023-04-27T02:00:34.592Z,2.03
2023-04-27T02:03:36.996Z,1.92
2023-04-27T02:06:39.370Z,1.80
2023-04-27T02:09:41.807Z,1.73
2023-04-27T02:12:44.088Z,1.72
2023-04-27T02:15:46.357Z,1.65
2023-04-27T02:18:49.205Z,1.62
2023-04-27T02:21:52.612Z,1.66
2023-04-27T02:24:54.933Z,1.60
2023-04-27T02:27:57.207Z,1.47
2023-04-27T02:30:59.884Z,1.49
2023-04-27T02:34:02.095Z,1.37
2023-04-27T02:37:04.297Z,1.38
2023-04-27T02:40:08.120Z,1.41
2023-04-27T02:43:10.658Z,1.35
2023-04-27T02:46:13.969Z,1.37
2023-04-27T02:49:16.825Z,1.46
2023-04-27T02:52:19.069Z,1.52
2023-04-27T02:55:21.529Z,1.55
2023-04-27T02:58:24.192Z,1.62
2023-04-27T03:01:26.465Z,1.41
2023-04-27T03:04:30.083Z,1.37
2023-04-27T03:07:32.547Z,1.32
2023-04-27T03:10:34.751Z,1.42
2023-04-27T03:13:42.011Z,1.32
2023-04-27T03:16:44.353Z,1.31
2023-04-27T03:19:48.767Z,1.17
2023-04-27T03:22:51.139Z,1.19
2023-04-27T03:25:53.516Z,1.22
2023-04-27T03:28:55.970Z,1.22
2023-04-27T03:31:58.192Z,1.31
2023-04-27T03:35:00.504Z,1.26
2023-04-27T03:38:02.719Z,1.14
2023-04-27T03:41:05.344Z,1.20
2023-04-27T03:44:07.579Z,1.36
2023-04-27T03:47:10.516Z,1.25
2023-04-27T03:50:12.757Z,1.24
2023-04-27T03:53:15.851Z,1.25
2023-04-27T03:56:18.201Z,1.23
2023-04-27T03:59:20.498Z,1.26
2023-04-27T04:02:23.524Z,1.32
2023-04-27T04:05:25.932Z,1.27
2023-04-27T04:08:28.179Z,1.33
2023-04-27T04:11:30.396Z,1.25
2023-04-27T04:14:32.680Z,1.49
2023-04-27T04:17:35.019Z,1.63
2023-04-27T04:20:37.236Z,2.14
2023-04-27T04:23:41.285Z,3.25
2023-04-27T04:26:43.678Z,3.79
2023-04-27T04:29:46.168Z,4.63
2023-04-27T04:32:48.390Z,4.84
2023-04-27T04:35:50.591Z,5.23
2023-04-27T04:38:54.398Z,5.38
2023-04-27T04:41:56.762Z,6.01
2023-04-27T04:44:59.139Z,6.09
2023-04-27T04:48:02.126Z,6.49
2023-04-27T04:51:07.672Z,6.60
2023-04-27T04:54:10.539Z,7.03
2023-04-27T04:57:12.715Z,7.19
2023-04-27T05:00:15.127Z,7.43
2023-04-27T05:03:17.522Z,7.56
2023-04-27T05:06:19.977Z,8.22
2023-04-27T05:09:22.524Z,7.67
2023-04-27T05:12:24.754Z,7.94
2023-04-27T05:15:26.938Z,7.54
2023-04-27T05:18:29.129Z,7.93
2023-04-27T05:21:32.015Z,7.51
2023-04-27T05:24:34.360Z,7.73
2023-04-27T05:27:36.597Z,7.50
2023-04-27T05:30:38.839Z,7.68
2023-04-27T05:33:41.288Z,7.57
2023-04-27T05:36:43.878Z,7.51
2023-04-27T05:39:46.147Z,7.85
2023-04-27T05:42:49.036Z,7.84
2023-04-27T05:45:51.648Z,7.86
2023-04-27T05:48:53.891Z,8.06
2023-04-27T05:51:56.112Z,8.02
2023-04-27T05:54:58.728Z,8.14
2023-04-27T05:58:08.737Z,8.17
2023-04-27T06:01:11.343Z,8.71
2023-04-27T06:04:13.657Z,8.14
2023-04-27T06:07:16.489Z,8.09
2023-04-27T06:10:18.690Z,8.20
2023-04-27T06:13:21.042Z,8.04
2023-04-27T06:16:23.674Z,7.96
2023-04-27T06:19:26.878Z,8.46
2023-04-27T06:22:29.084Z,8.41
2023-04-27T06:25:31.459Z,8.78
2023-04-27T06:28:34.029Z,8.64
2023-04-27T06:31:36.356Z,8.84
2023-04-27T06:34:38.558Z,9.39
2023-04-27T06:37:40.904Z,9.08
2023-04-27T06:40:43.408Z,8.97
2023-04-27T06:43:45.565Z,8.83
2023-04-27T06:46:47.829Z,9.13
2023-04-27T06:49:50.172Z,9.22
2023-04-27T06:52:52.429Z,9.09
2023-04-27T06:55:55.580Z,9.49
2023-04-27T06:58:57.884Z,9.29
2023-04-27T07:02:00.441Z,9.40
2023-04-27T07:05:02.942Z,9.58
2023-04-27T07:08:07.897Z,9.69
2023-04-27T07:11:11.109Z,9.69
2023-04-27T07:14:13.410Z,10.19
2023-04-27T07:17:15.831Z,10.08
2023-04-27T07:20:18.619Z,10.11
2023-04-27T07:23:20.930Z,9.79
2023-04-27T07:26:24.010Z,9.65
2023-04-27T07:29:28.407Z,9.42
2023-04-27T07:32:31.098Z,9.50
2023-04-27T07:35:33.444Z,9.82
2023-04-27T07:38:35.725Z,9.93
2023-04-27T07:41:38.059Z,10.08
2023-04-27T07:44:40.909Z,10.33
2023-04-27T07:47:44.158Z,10.45
2023-04-27T07:50:46.676Z,10.10
2023-04-27T07:53:48.877Z,10.05
2023-04-27T07:56:51.785Z,9.94
2023-04-27T07:59:54.042Z,9.99
2023-04-27T08:02:56.710Z,9.74
2023-04-27T08:05:59.789Z,10.12
2023-04-27T08:09:04.169Z,10.35
2023-04-27T08:12:06.573Z,10.41
2023-04-27T08:15:09.470Z,10.79
2023-04-27T08:18:11.688Z,10.64
2023-04-27T08:21:13.922Z,11.03
2023-04-27T08:24:16.197Z,11.06
2023-04-27T08:27:18.435Z,11.69
2023-04-27T08:30:21.270Z,11.95
2023-04-27T08:33:23.463Z,11.86
2023-04-27T08:36:26.310Z,11.89
2023-04-27T08:39:28.845Z,11.74
2023-04-27T08:42:31.639Z,11.50
2023-04-27T08:45:33.893Z,11.38
2023-04-27T08:48:36.309Z,11.14
2023-04-27T08:51:38.665Z,10.82
2023-04-27T08:54:40.993Z,10.30
2023-04-27T08:57:56.780Z,10.24
2023-04-27T09:00:59.822Z,10.46
2023-04-27T09:04:02.410Z,10.68
2023-04-27T09:07:15.400Z,11.04
2023-04-27T09:10:17.666Z,11.35
2023-04-27T09:13:19.917Z,11.58
2023-04-27T09:16:28.380Z,11.52
2023-04-27T09:19:31.693Z,10.86
2023-04-27T09:22:42.998Z,11.02
2023-04-27T09:25:45.252Z,11.01
2023-04-27T09:28:52.547Z,10.91
2023-04-27T09:31:54.817Z,10.82
2023-04-27T09:34:57.087Z,10.95
2023-04-27T09:38:00.860Z,10.43
2023-04-27T09:41:03.425Z,10.59
2023-04-27T09:44:05.701Z,10.75
2023-04-27T09:47:08.165Z,11.20
2023-04-27T09:50:12.920Z,11.58
2023-04-27T09:53:20.657Z,11.58
2023-04-27T09:56:56.639Z,11.57
2023-04-27T10:00:11.206Z,12.05
2023-04-27T10:03:24.271Z,12.36
2023-04-27T10:06:48.652Z,12.16
2023-04-27T10:09:53.971Z,11.94
2023-04-27T10:12:58.060Z,11.33
2023-04-27T10:16:16.708Z,11.26
2023-04-27T10:19:19.438Z,12.01
2023-04-27T10:22:23.848Z,12.67
2023-04-27T10:25:28.600Z,12.35
2023-04-27T10:28:38.987Z,12.82
2023-04-27T10:31:47.697Z,12.26
2023-04-27T10:35:08.927Z,11.88
2023-04-27T10:38:16.460Z,11.33
2023-04-27T10:41:18.711Z,11.27
2023-04-27T10:44:27.317Z,11.18
2023-04-27T10:47:39.812Z,11.33
2023-04-27T10:50:42.767Z,11.60
2023-04-27T10:53:45.085Z,11.77
2023-04-27T10:56:47.275Z,11.76
2023-04-27T10:59:51.759Z,11.53
2023-04-27T11:02:55.696Z,11.38
2023-04-27T11:06:05.827Z,11.76
2023-04-27T11:09:10.714Z,11.73
2023-04-27T11:12:14.021Z,11.51
2023-04-27T11:15:16.354Z,11.57
2023-04-27T11:18:20.598Z,11.28
2023-04-27T11:21:23.582Z,11.39
2023-04-27T11:24:25.780Z,11.69
2023-04-27T11:27:38.221Z,12.65
2023-04-27T11:30:40.419Z,13.06
2023-04-27T11:33:51.984Z,13.73
2023-04-27T11:40:14.213Z,14.72
2023-04-27T11:43:16.570Z,15.03
2023-04-27T11:46:22.455Z,15.21
2023-04-27T11:49:25.862Z,14.59
2023-04-27T11:52:40.150Z,14.37
2023-04-27T11:55:43.330Z,14.42
2023-04-27T11:58:46.427Z,14.60
2023-04-27T12:01:48.951Z,14.71
2023-04-27T12:04:51.784Z,14.34
2023-04-27T12:07:54.195Z,14.31
2023-04-27T12:10:56.676Z,14.11
2023-04-27T12:13:58.890Z,13.96
2023-04-27T12:17:01.482Z,14.04
2023-04-27T12:20:04.467Z,13.72
2023-04-27T12:23:07.407Z,13.55
2023-04-27T12:26:10.125Z,14.11
2023-04-27T12:29:12.950Z,14.27
2023-04-27T12:32:15.150Z,13.37
2023-04-27T12:35:17.497Z,13.85
2023-04-27T12:38:19.689Z,13.76
2023-04-27T12:41:23.349Z,13.57
2023-04-27T12:44:25.664Z,13.89
2023-04-27T12:47:46.622Z,14.28
2023-04-27T12:50:50.283Z,14.60
2023-04-27T12:53:52.499Z,14.67
2023-04-27T12:56:54.944Z,14.65
2023-04-27T12:59:58.874Z,14.69
2023-04-27T13:03:02.704Z,14.85
2023-04-27T13:06:05.106Z,14.50
2023-04-27T13:09:07.407Z,14.14
2023-04-27T13:12:09.566Z,14.00
2023-04-27T13:15:11.892Z,14.11
2023-04-27T13:18:14.198Z,14.11
2023-04-27T13:21:17.082Z,13.81
2023-04-27T13:24:19.360Z,13.37
2023-04-27T13:27:25.224Z,13.40
2023-04-27T13:30:27.926Z,13.34
2023-04-27T13:33:30.409Z,13.38
2023-04-27T13:36:32.672Z,13.43
2023-04-27T13:39:34.910Z,13.42
2023-04-27T13:42:37.746Z,13.41
2023-04-27T13:45:40.170Z,13.68
2023-04-27T13:48:42.689Z,13.99
2023-04-27T13:51:44.870Z,14.00
2023-04-27T13:54:47.366Z,13.57
2023-04-27T13:57:49.610Z,13.44
2023-04-27T14:00:52.990Z,13.90
2023-04-27T14:03:55.839Z,13.52
2023-04-27T14:06:58.226Z,12.65
2023-04-27T14:10:01.228Z,12.90
2023-04-27T14:13:03.936Z,13.00
2023-04-27T14:16:07.231Z,12.97
2023-04-27T14:19:10.502Z,13.05
2023-04-27T14:22:12.701Z,12.83
2023-04-27T14:25:14.941Z,12.35
2023-04-27T14:28:17.169Z,12.39
2023-04-27T14:31:19.510Z,12.64
2023-04-27T14:34:21.786Z,12.53
2023-04-27T14:37:24.086Z,12.73
2023-04-27T14:40:26.317Z,12.42
2023-04-27T14:43:28.525Z,12.36
2023-04-27T14:46:30.752Z,12.05
2023-04-27T14:49:33.049Z,11.91
2023-04-27T14:52:35.207Z,11.99
2023-04-27T14:55:37.403Z,11.86
2023-04-27T14:58:39.628Z,11.89
2023-04-27T15:01:41.958Z,12.01
2023-04-27T15:04:44.276Z,12.20
2023-04-27T15:07:46.652Z,12.18
2023-04-27T15:10:48.829Z,12.41
2023-04-27T15:13:51.320Z,12.43
2023-04-27T15:16:53.503Z,12.38
2023-04-27T15:19:55.920Z,12.33
2023-04-27T15:22:58.272Z,12.34
2023-04-27T15:26:00.571Z,12.49
2023-04-27T15:29:02.746Z,12.55
2023-04-27T15:32:05.116Z,12.57
2023-04-27T15:35:08.279Z,12.45
2023-04-27T15:38:12.448Z,12.44
2023-04-27T15:41:14.666Z,12.43
2023-04-27T15:44:16.899Z,12.37
2023-04-27T15:47:19.205Z,12.52
2023-04-27T15:50:21.520Z,12.52
2023-04-27T15:53:23.771Z,12.62
2023-04-27T15:56:29.893Z,12.29
2023-04-27T15:59:32.932Z,12.36
2023-04-27T16:02:35.207Z,12.38
2023-04-27T16:05:37.474Z,12.34
2023-04-27T16:08:39.694Z,12.29
2023-04-27T16:11:45.041Z,12.21
2023-04-27T16:14:47.267Z,12.23
2023-04-27T16:17:49.624Z,12.27
2023-04-27T16:20:51.835Z,12.37
2023-04-27T16:23:54.248Z,12.38
2023-04-27T16:26:56.475Z,12.21
2023-04-27T16:29:58.669Z,12.14
2023-04-27T16:33:01.310Z,12.11
2023-04-27T16:36:03.724Z,12.01
2023-04-27T16:39:06.018Z,12.03
2023-04-27T16:42:08.324Z,12.05
2023-04-27T16:45:11.165Z,11.98
2023-04-27T16:48:13.452Z,11.92
2023-04-27T16:51:15.668Z,11.91
2023-04-27T16:54:18.067Z,11.87
2023-04-27T16:57:20.524Z,11.85
2023-04-27T17:00:22.836Z,11.83
2023-04-27T17:03:25.150Z,11.63
2023-04-27T17:06:28.173Z,11.68
2023-04-27T17:09:30.340Z,11.80
2023-04-27T17:12:32.519Z,11.71
2023-04-27T17:15:34.777Z,11.60
2023-04-27T17:18:37.291Z,11.64
2023-04-27T17:21:39.492Z,11.54
2023-04-27T17:24:42.158Z,11.56
2023-04-27T17:27:44.499Z,11.50
2023-04-27T17:30:47.032Z,11.37
2023-04-27T17:33:49.664Z,11.34
2023-04-27T17:36:51.949Z,11.26
2023-04-27T17:39:54.553Z,11.25
2023-04-27T17:42:57.934Z,11.08
2023-04-27T17:46:00.210Z,10.87
2023-04-27T17:49:02.409Z,10.70
2023-04-27T17:52:04.920Z,10.39
2023-04-27T17:55:07.417Z,10.37
2023-04-27T17:58:11.162Z,10.17
2023-04-27T18:01:13.484Z,9.97
2023-04-27T18:04:16.052Z,9.87
2023-04-27T18:07:19.337Z,9.77
2023-04-27T18:10:21.596Z,9.66
2023-04-27T18:13:23.984Z,9.53
2023-04-27T18:16:26.261Z,9.39
2023-04-27T18:19:28.493Z,9.30
2023-04-27T18:22:30.753Z,9.21
2023-04-27T18:25:32.943Z,8.95
2023-04-27T18:28:35.302Z,8.89
2023-04-27T18:31:38.057Z,8.78
2023-04-27T18:34:40.816Z,8.55
2023-04-27T18:37:48.084Z,8.44
2023-04-27T18:40:50.345Z,8.40
2023-04-27T18:43:52.619Z,8.21
2023-04-27T18:46:55.064Z,8.06
2023-04-27T18:49:57.286Z,8.10
2023-04-27T18:52:59.504Z,7.95
2023-04-27T18:56:02.326Z,7.90
2023-04-27T18:59:05.592Z,7.90
2023-04-27T19:02:08.860Z,7.63
2023-04-27T19:05:13.486Z,7.65
2023-04-27T19:08:17.792Z,7.60
2023-04-27T19:11:22.331Z,7.35
2023-04-27T19:14:24.980Z,7.31
2023-04-27T19:17:27.398Z,7.35
2023-04-27T19:20:30.557Z,7.24
2023-04-27T19:23:32.759Z,7.08
2023-04-27T19:26:35.087Z,7.01
2023-04-27T19:29:54.443Z,6.89
2023-04-27T19:32:56.947Z,6.70
2023-04-27T19:35:59.431Z,6.71
2023-04-27T19:39:01.834Z,6.75
2023-04-27T19:42:04.431Z,6.65
2023-04-27T19:45:07.275Z,6.73
2023-04-27T19:48:11.253Z,6.65
2023-04-27T19:51:13.761Z,6.62
2023-04-27T19:54:16.989Z,6.48
2023-04-27T19:57:19.822Z,6.42
2023-04-27T20:00:22.166Z,6.16
2023-04-27T20:03:24.677Z,6.00
2023-04-27T20:06:27.012Z,6.04
2023-04-27T20:09:29.192Z,5.97
2023-04-27T20:12:51.602Z,6.03
2023-04-27T20:15:53.865Z,5.84
2023-04-27T20:18:56.165Z,5.85
2023-04-27T20:21:59.242Z,5.68
2023-04-27T20:25:02.707Z,5.71
2023-04-27T20:28:05.092Z,5.70
2023-04-27T20:31:07.389Z,5.55
2023-04-27T20:34:09.572Z,5.47
2023-04-27T20:37:11.751Z,5.58
2023-04-27T20:40:17.640Z,5.52
2023-04-27T20:43:21.128Z,5.50
2023-04-27T20:46:23.333Z,5.25
2023-04-27T20:49:34.149Z,5.19
2023-04-27T20:52:37.032Z,5.15
2023-04-27T20:55:39.455Z,5.14
2023-04-27T20:58:41.620Z,5.22
2023-04-27T21:01:43.959Z,5.18
2023-04-27T21:04:46.585Z,5.06
2023-04-27T21:07:48.822Z,4.97
2023-04-27T21:10:51.123Z,4.90
2023-04-27T21:13:53.336Z,4.79
2023-04-27T21:16:56.088Z,4.91
2023-04-27T21:19:58.348Z,4.86
2023-04-27T21:23:00.668Z,4.86
2023-04-27T21:26:02.963Z,4.93
2023-04-27T21:29:06.073Z,4.90
2023-04-27T21:32:08.365Z,4.80
2023-04-27T21:35:10.793Z,4.76
2023-04-27T21:38:13.053Z,4.57
2023-04-27T21:41:16.687Z,4.61
2023-04-27T21:44:18.917Z,4.79
2023-04-27T21:47:22.183Z,4.65
2023-04-27T21:50:24.515Z,4.62
2023-04-27T21:53:26.830Z,4.48
2023-04-27T21:56:29.050Z,4.51
2023-04-27T21:59:31.261Z,4.42
2023-04-27T22:02:49.602Z,4.23
2023-04-27T22:05:52.808Z,4.39
2023-04-27T22:08:55.116Z,4.37
2023-04-27T22:11:57.310Z,4.19
2023-04-27T22:14:59.544Z,4.12
2023-04-27T22:18:02.114Z,4.13
2023-04-27T22:21:04.349Z,4.04
2023-04-27T22:24:06.678Z,4.12
2023-04-27T22:27:08.892Z,4.10
2023-04-27T22:30:11.637Z,4.00
2023-04-27T22:33:13.941Z,3.83
2023-04-27T22:36:16.255Z,3.78
2023-04-27T22:39:18.961Z,3.66
2023-04-27T22:42:21.162Z,3.69
2023-04-27T22:45:23.642Z,3.49
2023-04-27T22:48:26.023Z,3.71
2023-04-27T22:51:28.225Z,3.66
2023-04-27T22:54:30.493Z,3.68
2023-04-27T22:57:32.704Z,3.71
2023-04-27T23:00:34.934Z,3.68
2023-04-27T23:03:37.255Z,3.64
2023-04-27T23:06:39.493Z,3.50
2023-04-27T23:09:43.099Z,3.42
2023-04-27T23:12:45.381Z,3.46
2023-04-27T23:15:48.226Z,3.47
2023-04-27T23:18:50.875Z,3.47
2023-04-27T23:21:53.103Z,3.46
2023-04-27T23:24:55.415Z,3.46
2023-04-27T23:27:57.579Z,3.39
2023-04-27T23:30:59.788Z,3.34
2023-04-27T23:34:02.010Z,3.37
2023-04-27T23:37:04.191Z,3.25
2023-04-27T23:40:07.133Z,3.18
2023-04-27T23:43:09.430Z,3.15
2023-04-27T23:46:11.707Z,3.25
2023-04-27T23:49:13.954Z,3.26
2023-04-27T23:52:16.151Z,3.12
2023-04-27T23:55:18.494Z,3.14
2023-04-27T23:58:21.952Z,2.99
